sensor_id;sensor_type;location;lat;lon;timestamp;pressure;altitude;pressure_sealevel;temperature;humidity
17764;BME280;22245;52.832;13.816;2022-12-07T00:02:28;101047.47;;;4.13;83.84
17764;BME280;22245;52.832;13.816;2022-12-07T00:05:49;101044.53;;;4.19;84.26
17764;BME280;22245;52.832;13.816;2022-12-07T00:09:14;101049.66;;;4.23;83.63
17764;BME280;22245;52.832;13.816;2022-12-07T00:12:37;101049.53;;;4.24;83.42
17764;BME280;22245;52.832;13.816;2022-12-07T00:16:00;101043.28;;;4.27;83.37
17764;BME280;22245;52.832;13.816;2022-12-07T00:19:22;101043.09;;;4.30;83.57
17764;BME280;22245;52.832;13.816;2022-12-07T00:22:44;101047.50;;;4.29;83.51
17764;BME280;22245;52.832;13.816;2022-12-07T00:26:08;101034.31;;;4.29;83.83
17764;BME280;22245;52.832;13.816;2022-12-07T00:29:32;101034.44;;;4.28;83.70
17764;BME280;22245;52.832;13.816;2022-12-07T00:32:54;101035.25;;;4.28;83.46
17764;BME280;22245;52.832;13.816;2022-12-07T00:36:17;101034.00;;;4.19;82.93
17764;BME280;22245;52.832;13.816;2022-12-07T00:39:46;101031.06;;;4.08;83.30
17764;BME280;22245;52.832;13.816;2022-12-07T00:43:08;101029.47;;;4.05;81.73
17764;BME280;22245;52.832;13.816;2022-12-07T00:46:31;101018.44;;;3.81;81.93
17764;BME280;22245;52.832;13.816;2022-12-07T00:49:53;101023.94;;;3.76;81.70
17764;BME280;22245;52.832;13.816;2022-12-07T00:53:15;101023.06;;;3.76;81.40
17764;BME280;22245;52.832;13.816;2022-12-07T00:56:37;101019.66;;;3.74;81.39
17764;BME280;22245;52.832;13.816;2022-12-07T00:59:58;101034.78;;;3.70;82.44
17764;BME280;22245;52.832;13.816;2022-12-07T01:03:22;101027.66;;;3.72;81.81
17764;BME280;22245;52.832;13.816;2022-12-07T01:06:44;101024.56;;;3.64;82.02
17764;BME280;22245;52.832;13.816;2022-12-07T01:10:07;101029.75;;;3.66;81.69
17764;BME280;22245;52.832;13.816;2022-12-07T01:13:29;101024.75;;;3.61;81.86
17764;BME280;22245;52.832;13.816;2022-12-07T01:16:51;101026.50;;;3.60;82.04
17764;BME280;22245;52.832;13.816;2022-12-07T01:20:14;101027.44;;;3.59;82.14
17764;BME280;22245;52.832;13.816;2022-12-07T01:23:36;101016.06;;;3.41;82.01
17764;BME280;22245;52.832;13.816;2022-12-07T01:26:58;101004.75;;;3.39;83.17
17764;BME280;22245;52.832;13.816;2022-12-07T01:30:20;101006.06;;;3.30;82.80
17764;BME280;22245;52.832;13.816;2022-12-07T01:33:42;101002.34;;;3.35;82.98
17764;BME280;22245;52.832;13.816;2022-12-07T01:37:06;100995.84;;;3.24;83.76
17764;BME280;22245;52.832;13.816;2022-12-07T01:40:28;100998.31;;;3.27;nan
17764;BME280;22245;52.832;13.816;2022-12-07T01:44:13;100995.38;;;3.33;83.65
17764;BME280;22245;52.832;13.816;2022-12-07T01:47:35;100991.50;;;3.41;83.23
17764;BME280;22245;52.832;13.816;2022-12-07T01:51:00;100995.88;;;3.42;82.52
17764;BME280;22245;52.832;13.816;2022-12-07T01:54:24;100991.13;;;3.31;82.67
17764;BME280;22245;52.832;13.816;2022-12-07T01:57:49;100989.19;;;3.35;83.33
17764;BME280;22245;52.832;13.816;2022-12-07T02:01:11;100977.72;;;3.36;83.26
17764;BME280;22245;52.832;13.816;2022-12-07T02:04:33;100977.56;;;3.39;83.01
17764;BME280;22245;52.832;13.816;2022-12-07T02:07:57;100967.91;;;3.39;82.89
17764;BME280;22245;52.832;13.816;2022-12-07T02:11:21;100965.09;;;3.42;82.43
17764;BME280;22245;52.832;13.816;2022-12-07T02:14:43;100952.81;;;3.43;82.83
17764;BME280;22245;52.832;13.816;2022-12-07T02:18:10;100952.66;;;3.46;82.99
17764;BME280;22245;52.832;13.816;2022-12-07T02:21:40;100947.44;;;3.44;83.07
17764;BME280;22245;52.832;13.816;2022-12-07T02:25:09;100956.09;;;3.46;83.15
17764;BME280;22245;52.832;13.816;2022-12-07T02:28:47;100948.22;;;3.46;82.93
17764;BME280;22245;52.832;13.816;2022-12-07T02:32:15;100947.53;;;3.43;82.44
17764;BME280;22245;52.832;13.816;2022-12-07T02:35:41;100946.75;;;3.41;82.47
17764;BME280;22245;52.832;13.816;2022-12-07T02:39:09;100940.56;;;3.42;82.34
17764;BME280;22245;52.832;13.816;2022-12-07T02:42:36;100937.00;;;3.43;81.87
17764;BME280;22245;52.832;13.816;2022-12-07T02:46:04;100928.31;;;3.41;81.67
17764;BME280;22245;52.832;13.816;2022-12-07T02:49:28;100926.69;;;3.38;81.54
17764;BME280;22245;52.832;13.816;2022-12-07T02:52:50;100923.13;;;3.39;81.35
17764;BME280;22245;52.832;13.816;2022-12-07T02:56:17;100917.16;;;3.36;81.08
17764;BME280;22245;52.832;13.816;2022-12-07T02:59:54;100913.78;;;3.33;80.75
17764;BME280;22245;52.832;13.816;2022-12-07T03:03:22;100906.75;;;3.34;80.38
17764;BME280;22245;52.832;13.816;2022-12-07T03:06:50;100902.63;;;3.28;80.19
17764;BME280;22245;52.832;13.816;2022-12-07T03:10:18;100901.97;;;3.25;80.16
17764;BME280;22245;52.832;13.816;2022-12-07T03:13:46;100895.81;;;3.24;79.86
17764;BME280;22245;52.832;13.816;2022-12-07T03:17:12;100886.22;;;3.23;80.75
17764;BME280;22245;52.832;13.816;2022-12-07T03:20:37;100874.94;;;3.21;80.16
17764;BME280;22245;52.832;13.816;2022-12-07T03:24:04;100875.00;;;3.19;80.29
17764;BME280;22245;52.832;13.816;2022-12-07T03:27:32;100870.00;;;3.15;79.57
17764;BME280;22245;52.832;13.816;2022-12-07T03:30:59;100860.41;;;3.14;79.58
17764;BME280;22245;52.832;13.816;2022-12-07T03:34:27;100850.03;;;3.11;79.89
17764;BME280;22245;52.832;13.816;2022-12-07T03:37:55;100844.84;;;3.09;79.77
17764;BME280;22245;52.832;13.816;2022-12-07T03:41:23;100838.81;;;3.07;79.47
17764;BME280;22245;52.832;13.816;2022-12-07T03:44:45;100832.72;;;3.07;80.16
17764;BME280;22245;52.832;13.816;2022-12-07T03:48:14;100831.78;;;3.08;79.81
17764;BME280;22245;52.832;13.816;2022-12-07T03:51:43;100829.31;;;3.04;80.18
17764;BME280;22245;52.832;13.816;2022-12-07T03:55:11;100822.34;;;3.03;79.81
17764;BME280;22245;52.832;13.816;2022-12-07T03:58:36;100821.53;;;3.01;79.84
17764;BME280;22245;52.832;13.816;2022-12-07T04:02:02;100817.31;;;2.99;80.41
17764;BME280;22245;52.832;13.816;2022-12-07T04:05:24;100812.13;;;2.97;80.66
17764;BME280;22245;52.832;13.816;2022-12-07T04:08:46;100798.97;;;2.97;80.85
17764;BME280;22245;52.832;13.816;2022-12-07T04:12:09;100804.22;;;2.97;80.57
17764;BME280;22245;52.832;13.816;2022-12-07T04:15:31;100804.16;;;2.99;80.54
17764;BME280;22245;52.832;13.816;2022-12-07T04:18:52;100797.19;;;2.98;80.35
17764;BME280;22245;52.832;13.816;2022-12-07T04:22:14;100793.69;;;2.97;80.42
17764;BME280;22245;52.832;13.816;2022-12-07T04:25:36;100787.50;;;2.98;80.43
17764;BME280;22245;52.832;13.816;2022-12-07T04:28:59;100783.34;;;2.94;80.75
17764;BME280;22245;52.832;13.816;2022-12-07T04:32:26;100788.75;;;2.91;80.90
17764;BME280;22245;52.832;13.816;2022-12-07T04:35:48;100785.63;;;2.84;81.33
17764;BME280;22245;52.832;13.816;2022-12-07T04:39:17;100780.44;;;2.83;81.58
17764;BME280;22245;52.832;13.816;2022-12-07T04:42:39;100778.72;;;2.82;81.00
17764;BME280;22245;52.832;13.816;2022-12-07T04:46:02;100770.06;;;2.80;81.76
17764;BME280;22245;52.832;13.816;2022-12-07T04:49:24;100773.47;;;2.82;81.92
17764;BME280;22245;52.832;13.816;2022-12-07T04:52:46;100761.25;;;2.81;81.93
17764;BME280;22245;52.832;13.816;2022-12-07T04:56:08;100757.69;;;2.82;82.21
17764;BME280;22245;52.832;13.816;2022-12-07T04:59:30;100755.06;;;2.82;82.26
17764;BME280;22245;52.832;13.816;2022-12-07T05:02:53;100751.44;;;2.84;82.77
17764;BME280;22245;52.832;13.816;2022-12-07T05:06:16;100744.38;;;2.85;82.66
17764;BME280;22245;52.832;13.816;2022-12-07T05:09:37;100746.00;;;2.87;82.99
17764;BME280;22245;52.832;13.816;2022-12-07T05:12:59;100744.22;;;2.88;82.96
17764;BME280;22245;52.832;13.816;2022-12-07T05:16:23;100734.63;;;2.87;83.24
17764;BME280;22245;52.832;13.816;2022-12-07T05:19:46;100733.69;;;2.88;83.60
17764;BME280;22245;52.832;13.816;2022-12-07T05:23:08;100735.38;;;2.89;83.96
17764;BME280;22245;52.832;13.816;2022-12-07T05:26:30;100732.75;;;2.89;83.61
17764;BME280;22245;52.832;13.816;2022-12-07T05:29:52;100736.16;;;2.91;83.38
17764;BME280;22245;52.832;13.816;2022-12-07T05:33:14;100718.50;;;2.93;83.86
17764;BME280;22245;52.832;13.816;2022-12-07T05:36:37;100726.41;;;2.93;83.94
17764;BME280;22245;52.832;13.816;2022-12-07T05:40:00;100713.25;;;2.93;83.89
17764;BME280;22245;52.832;13.816;2022-12-07T05:43:22;100717.56;;;2.94;84.34
17764;BME280;22245;52.832;13.816;2022-12-07T05:46:44;100708.56;;;2.98;84.35
17764;BME280;22245;52.832;13.816;2022-12-07T05:50:06;100705.94;;;2.98;84.79
17764;BME280;22245;52.832;13.816;2022-12-07T05:53:30;100700.63;;;3.00;85.24
17764;BME280;22245;52.832;13.816;2022-12-07T05:56:52;100701.22;;;3.05;85.10
17764;BME280;22245;52.832;13.816;2022-12-07T06:00:14;100695.13;;;3.04;85.21
17764;BME280;22245;52.832;13.816;2022-12-07T06:03:34;100691.44;;;3.07;85.86
17764;BME280;22245;52.832;13.816;2022-12-07T06:06:56;100680.75;;;3.10;85.71
17764;BME280;22245;52.832;13.816;2022-12-07T06:10:19;100680.69;;;3.12;85.50
17764;BME280;22245;52.832;13.816;2022-12-07T06:13:42;100676.19;;;3.14;86.19
17764;BME280;22245;52.832;13.816;2022-12-07T06:17:06;100670.16;;;3.12;85.98
17764;BME280;22245;52.832;13.816;2022-12-07T06:20:28;100662.84;;;3.17;86.75
17764;BME280;22245;52.832;13.816;2022-12-07T06:23:50;100663.44;;;3.22;86.21
17764;BME280;22245;52.832;13.816;2022-12-07T06:27:13;100667.94;;;3.20;86.34
17764;BME280;22245;52.832;13.816;2022-12-07T06:30:35;100662.50;;;3.23;85.98
17764;BME280;22245;52.832;13.816;2022-12-07T06:33:58;100665.81;;;3.27;86.19
17764;BME280;22245;52.832;13.816;2022-12-07T06:37:20;100665.56;;;3.31;86.02
17764;BME280;22245;52.832;13.816;2022-12-07T06:40:41;100665.56;;;3.31;86.31
17764;BME280;22245;52.832;13.816;2022-12-07T06:44:06;100654.84;;;3.35;86.65
17764;BME280;22245;52.832;13.816;2022-12-07T06:47:28;100652.97;;;3.37;86.22
17764;BME280;22245;52.832;13.816;2022-12-07T06:51:01;100652.81;;;3.40;87.14
17764;BME280;22245;52.832;13.816;2022-12-07T06:54:23;100647.28;;;3.44;86.76
17764;BME280;22245;52.832;13.816;2022-12-07T06:57:45;100651.44;;;3.48;86.89
17764;BME280;22245;52.832;13.816;2022-12-07T07:01:10;100647.88;;;3.50;86.61
17764;BME280;22245;52.832;13.816;2022-12-07T07:04:32;100653.13;;;3.50;86.14
17764;BME280;22245;52.832;13.816;2022-12-07T07:07:54;100648.72;;;3.50;86.61
17764;BME280;22245;52.832;13.816;2022-12-07T07:11:36;100648.72;;;3.50;86.20
17764;BME280;22245;52.832;13.816;2022-12-07T07:14:57;100652.00;;;3.54;86.59
17764;BME280;22245;52.832;13.816;2022-12-07T07:18:21;100644.63;;;3.60;86.13
17764;BME280;22245;52.832;13.816;2022-12-07T07:21:43;100638.53;;;3.60;86.11
17764;BME280;22245;52.832;13.816;2022-12-07T07:25:05;100640.97;;;3.63;85.75
17764;BME280;22245;52.832;13.816;2022-12-07T07:28:27;100640.78;;;3.66;86.11
17764;BME280;22245;52.832;13.816;2022-12-07T07:31:49;100642.31;;;3.70;85.66
17764;BME280;22245;52.832;13.816;2022-12-07T07:35:12;100645.78;;;3.71;85.54
17764;BME280;22245;52.832;13.816;2022-12-07T07:38:34;100645.78;;;3.71;85.63
17764;BME280;22245;52.832;13.816;2022-12-07T07:41:56;100650.22;;;3.70;84.76
17764;BME280;22245;52.832;13.816;2022-12-07T07:45:21;100643.09;;;3.56;85.06
17764;BME280;22245;52.832;13.816;2022-12-07T07:48:43;100661.44;;;3.58;85.18
17764;BME280;22245;52.832;13.816;2022-12-07T07:52:06;100661.13;;;3.48;84.96
17764;BME280;22245;52.832;13.816;2022-12-07T07:55:28;100651.44;;;3.48;85.81
17764;BME280;22245;52.832;13.816;2022-12-07T07:58:51;100652.00;;;3.54;86.08
17764;BME280;22245;52.832;13.816;2022-12-07T08:02:14;100655.41;;;3.56;85.35
17764;BME280;22245;52.832;13.816;2022-12-07T08:05:36;100647.22;;;3.46;85.25
17764;BME280;22245;52.832;13.816;2022-12-07T08:09:00;100649.38;;;3.54;84.84
17764;BME280;22245;52.832;13.816;2022-12-07T08:12:22;100648.72;;;3.50;84.13
17764;BME280;22245;52.832;13.816;2022-12-07T08:15:45;100652.88;;;3.54;84.57
17764;BME280;22245;52.832;13.816;2022-12-07T08:19:07;100649.38;;;3.54;84.44
17764;BME280;22245;52.832;13.816;2022-12-07T08:22:29;100650.91;;;3.58;84.60
17764;BME280;22245;52.832;13.816;2022-12-07T08:25:52;100646.84;;;3.52;84.60
17764;BME280;22245;52.832;13.816;2022-12-07T08:29:14;100650.03;;;3.43;85.20
17764;BME280;22245;52.832;13.816;2022-12-07T08:32:36;100645.50;;;3.45;85.23
17764;BME280;22245;52.832;13.816;2022-12-07T08:36:00;100650.44;;;3.51;85.76
17764;BME280;22245;52.832;13.816;2022-12-07T08:39:22;100650.25;;;3.54;85.34
17764;BME280;22245;52.832;13.816;2022-12-07T08:42:54;100660.09;;;3.51;85.50
17764;BME280;22245;52.832;13.816;2022-12-07T08:46:18;100668.44;;;3.43;85.70
17764;BME280;22245;52.832;13.816;2022-12-07T08:49:44;100664.59;;;3.48;85.46
17764;BME280;22245;52.832;13.816;2022-12-07T08:53:08;100674.19;;;3.50;85.12
17764;BME280;22245;52.832;13.816;2022-12-07T08:56:29;100664.38;;;3.37;84.61
17764;BME280;22245;52.832;13.816;2022-12-07T08:59:53;100669.38;;;3.42;85.68
17764;BME280;22245;52.832;13.816;2022-12-07T09:03:15;100666.13;;;3.53;85.25
17764;BME280;22245;52.832;13.816;2022-12-07T09:06:36;100665.47;;;3.49;85.67
17764;BME280;22245;52.832;13.816;2022-12-07T09:09:58;100665.69;;;3.60;86.02
17764;BME280;22245;52.832;13.816;2022-12-07T09:13:21;100660.94;;;3.67;85.20
17764;BME280;22245;52.832;13.816;2022-12-07T09:16:44;100655.72;;;3.66;85.33
17764;BME280;22245;52.832;13.816;2022-12-07T09:20:07;100665.69;;;3.60;84.87
17764;BME280;22245;52.832;13.816;2022-12-07T09:23:29;100664.06;;;3.58;84.94
17764;BME280;22245;52.832;13.816;2022-12-07T09:26:51;100666.81;;;3.56;84.26
17764;BME280;22245;52.832;13.816;2022-12-07T09:30:13;100669.25;;;3.59;84.57
17764;BME280;22245;52.832;13.816;2022-12-07T09:33:36;100668.91;;;3.66;84.94
17764;BME280;22245;52.832;13.816;2022-12-07T09:36:58;100669.25;;;3.59;84.59
17764;BME280;22245;52.832;13.816;2022-12-07T09:40:21;100672.25;;;3.53;84.74
17764;BME280;22245;52.832;13.816;2022-12-07T09:43:44;100674.66;;;3.42;85.23
17764;BME280;22245;52.832;13.816;2022-12-07T09:47:09;100680.03;;;3.55;85.44
17764;BME280;22245;52.832;13.816;2022-12-07T09:50:33;100683.72;;;3.52;85.59
17764;BME280;22245;52.832;13.816;2022-12-07T09:53:56;100682.88;;;3.36;85.76
17764;BME280;22245;52.832;13.816;2022-12-07T09:57:24;100675.22;;;3.47;85.70
17764;BME280;22245;52.832;13.816;2022-12-07T10:00:47;100680.16;;;3.53;85.73
17764;BME280;22245;52.832;13.816;2022-12-07T10:04:12;100685.31;;;3.55;85.38
17764;BME280;22245;52.832;13.816;2022-12-07T10:07:36;100696.72;;;3.55;84.07
17764;BME280;22245;52.832;13.816;2022-12-07T10:11:01;100696.03;;;3.36;84.72
17764;BME280;22245;52.832;13.816;2022-12-07T10:14:23;100697.59;;;3.24;84.41
17764;BME280;22245;52.832;13.816;2022-12-07T10:18:17;100683.56;;;3.23;83.60
17764;BME280;22245;52.832;13.816;2022-12-07T10:21:59;100699.75;;;3.15;83.83
17764;BME280;22245;52.832;13.816;2022-12-07T10:25:25;100692.91;;;3.13;82.90
17764;BME280;22245;52.832;13.816;2022-12-07T10:28:47;100695.38;;;3.16;82.22
17764;BME280;22245;52.832;13.816;2022-12-07T10:32:28;100710.97;;;3.19;83.34
17764;BME280;22245;52.832;13.816;2022-12-07T10:35:51;100704.78;;;3.20;82.66
17764;BME280;22245;52.832;13.816;2022-12-07T10:39:15;100716.00;;;3.08;82.38
17764;BME280;22245;52.832;13.816;2022-12-07T10:42:39;100722.63;;;3.15;83.44
17764;BME280;22245;52.832;13.816;2022-12-07T10:50:17;100711.34;;;3.29;81.50
17764;BME280;22245;52.832;13.816;2022-12-07T10:53:52;100708.13;;;3.24;81.30
17764;BME280;22245;52.832;13.816;2022-12-07T10:57:33;100708.69;;;3.29;80.96
17764;BME280;22245;52.832;13.816;2022-12-07T11:01:06;100707.19;;;3.25;79.84
17764;BME280;22245;52.832;13.816;2022-12-07T11:04:35;100713.28;;;3.25;79.59
17764;BME280;22245;52.832;13.816;2022-12-07T11:08:05;100708.19;;;3.38;80.66
17764;BME280;22245;52.832;13.816;2022-12-07T11:11:35;100709.03;;;3.39;80.07
17764;BME280;22245;52.832;13.816;2022-12-07T11:15:01;100704.09;;;3.48;79.47
17764;BME280;22245;52.832;13.816;2022-12-07T11:18:32;100696.03;;;3.52;80.15
17764;BME280;22245;52.832;13.816;2022-12-07T11:21:57;100702.22;;;3.51;79.81
17764;BME280;22245;52.832;13.816;2022-12-07T11:25:24;100702.75;;;3.57;79.29
17764;BME280;22245;52.832;13.816;2022-12-07T11:29:08;100707.16;;;3.41;79.69
17764;BME280;22245;52.832;13.816;2022-12-07T11:32:45;100697.31;;;3.44;79.49
17764;BME280;22245;52.832;13.816;2022-12-07T11:36:23;100694.59;;;3.46;78.26
17764;BME280;22245;52.832;13.816;2022-12-07T11:39:50;100691.03;;;3.47;78.74
17764;BME280;22245;52.832;13.816;2022-12-07T11:43:19;100688.81;;;3.39;78.19
17764;BME280;22245;52.832;13.816;2022-12-07T11:46:49;100689.66;;;3.40;77.85
17764;BME280;22245;52.832;13.816;2022-12-07T11:50:24;100688.28;;;3.48;77.41
17764;BME280;22245;52.832;13.816;2022-12-07T11:53:52;100694.78;;;3.43;77.06
17764;BME280;22245;52.832;13.816;2022-12-07T11:57:18;100688.88;;;3.54;78.40
17764;BME280;22245;52.832;13.816;2022-12-07T12:00:42;100691.28;;;3.58;78.09
17764;BME280;22245;52.832;13.816;2022-12-07T12:04:16;100693.00;;;3.74;77.95
17764;BME280;22245;52.832;13.816;2022-12-07T12:07:44;100694.88;;;3.72;77.71
17764;BME280;22245;52.832;13.816;2022-12-07T12:11:42;100689.63;;;3.72;78.73
17764;BME280;22245;52.832;13.816;2022-12-07T12:15:17;100696.19;;;3.65;76.98
17764;BME280;22245;52.832;13.816;2022-12-07T12:19:17;100687.75;;;3.74;77.15
17764;BME280;22245;52.832;13.816;2022-12-07T12:22:42;100677.81;;;3.79;77.48
17764;BME280;22245;52.832;13.816;2022-12-07T12:26:07;100676.69;;;3.83;77.17
17764;BME280;22245;52.832;13.816;2022-12-07T12:29:37;100680.16;;;3.84;76.25
17764;BME280;22245;52.832;13.816;2022-12-07T12:33:05;100684.00;;;3.78;77.23
17764;BME280;22245;52.832;13.816;2022-12-07T12:36:44;100678.66;;;3.80;75.72
17764;BME280;22245;52.832;13.816;2022-12-07T12:40:41;100677.81;;;3.79;76.33
17764;BME280;22245;52.832;13.816;2022-12-07T12:44:43;100681.81;;;3.70;76.66
17764;BME280;22245;52.832;13.816;2022-12-07T12:48:29;100671.00;;;3.75;76.60
17764;BME280;22245;52.832;13.816;2022-12-07T12:51:53;100665.41;;;3.81;77.03
17764;BME280;22245;52.832;13.816;2022-12-07T12:55:18;100666.16;;;3.83;75.60
17764;BME280;22245;52.832;13.816;2022-12-07T12:58:45;100667.75;;;3.86;75.39
17764;BME280;22245;52.832;13.816;2022-12-07T13:02:16;100673.13;;;3.84;75.42
17764;BME280;22245;52.832;13.816;2022-12-07T13:05:41;100675.25;;;3.78;74.76
17764;BME280;22245;52.832;13.816;2022-12-07T13:09:03;100676.09;;;3.78;74.49
17764;BME280;22245;52.832;13.816;2022-12-07T13:12:26;100670.06;;;3.76;74.32
17764;BME280;22245;52.832;13.816;2022-12-07T13:15:49;100687.50;;;3.79;74.62
17764;BME280;22245;52.832;13.816;2022-12-07T13:23:29;100667.69;;;3.87;75.39
17764;BME280;22245;52.832;13.816;2022-12-07T13:26:55;100667.69;;;3.87;75.41
17764;BME280;22245;52.832;13.816;2022-12-07T13:30:19;100668.25;;;3.93;75.64
17764;BME280;22245;52.832;13.816;2022-12-07T13:33:43;100668.31;;;3.91;76.24
17764;BME280;22245;52.832;13.816;2022-12-07T13:37:12;100658.22;;;3.99;76.87
17764;BME280;22245;52.832;13.816;2022-12-07T13:40:37;100669.50;;;4.01;76.23
17764;BME280;22245;52.832;13.816;2022-12-07T13:44:04;100661.50;;;4.03;76.55
17764;BME280;22245;52.832;13.816;2022-12-07T13:47:31;100664.69;;;4.08;76.03
17764;BME280;22245;52.832;13.816;2022-12-07T13:50:57;100658.84;;;4.03;76.42
17764;BME280;22245;52.832;13.816;2022-12-07T13:54:20;100660.47;;;4.05;75.51
17764;BME280;22245;52.832;13.816;2022-12-07T13:57:45;100655.19;;;4.05;75.94
17764;BME280;22245;52.832;13.816;2022-12-07T14:01:09;100651.88;;;4.02;75.30
17764;BME280;22245;52.832;13.816;2022-12-07T14:04:33;100659.03;;;4.00;75.47
17764;BME280;22245;52.832;13.816;2022-12-07T14:07:57;100654.97;;;3.94;75.43
17764;BME280;22245;52.832;13.816;2022-12-07T14:11:20;100656.50;;;3.98;74.95
17764;BME280;22245;52.832;13.816;2022-12-07T14:14:47;100666.38;;;3.95;74.21
17764;BME280;22245;52.832;13.816;2022-12-07T14:18:26;100666.03;;;3.70;73.91
17764;BME280;22245;52.832;13.816;2022-12-07T14:22:06;100656.13;;;3.74;73.58
17764;BME280;22245;52.832;13.816;2022-12-07T14:25:28;100668.53;;;3.72;72.61
17764;BME280;22245;52.832;13.816;2022-12-07T14:28:50;100666.22;;;3.51;72.34
17764;BME280;22245;52.832;13.816;2022-12-07T14:32:22;100665.00;;;3.57;72.81
17764;BME280;22245;52.832;13.816;2022-12-07T14:35:48;100661.38;;;3.59;71.94
17764;BME280;22245;52.832;13.816;2022-12-07T14:39:11;100667.50;;;3.60;72.27
17764;BME280;22245;52.832;13.816;2022-12-07T14:42:34;100664.75;;;3.61;72.83
17764;BME280;22245;52.832;13.816;2022-12-07T14:45:56;100669.25;;;3.59;72.25
17764;BME280;22245;52.832;13.816;2022-12-07T14:49:19;100664.16;;;3.56;71.83
17764;BME280;22245;52.832;13.816;2022-12-07T14:52:59;100660.69;;;3.56;72.17
17764;BME280;22245;52.832;13.816;2022-12-07T14:56:42;100663.78;;;3.48;71.34
17764;BME280;22245;52.832;13.816;2022-12-07T15:00:06;100666.28;;;3.50;71.90
17764;BME280;22245;52.832;13.816;2022-12-07T15:03:28;100669.78;;;3.50;72.04
17764;BME280;22245;52.832;13.816;2022-12-07T15:06:56;100655.19;;;3.44;72.27
17764;BME280;22245;52.832;13.816;2022-12-07T15:10:21;100662.06;;;3.47;71.90
17764;BME280;22245;52.832;13.816;2022-12-07T15:13:44;100650.78;;;3.45;72.04
17764;BME280;22245;52.832;13.816;2022-12-07T15:17:23;100653.66;;;3.40;72.00
17764;BME280;22245;52.832;13.816;2022-12-07T15:20:51;100650.09;;;3.41;72.24
17764;BME280;22245;52.832;13.816;2022-12-07T15:24:14;100654.66;;;3.38;72.45
17764;BME280;22245;52.832;13.816;2022-12-07T15:27:36;100651.28;;;3.36;71.94
17764;BME280;22245;52.832;13.816;2022-12-07T15:30:58;100649.41;;;3.38;71.38
17764;BME280;22245;52.832;13.816;2022-12-07T15:34:40;100654.09;;;3.32;71.59
17764;BME280;22245;52.832;13.816;2022-12-07T15:38:02;100651.81;;;3.26;71.54
17764;BME280;22245;52.832;13.816;2022-12-07T15:41:26;100655.03;;;3.31;71.41
17764;BME280;22245;52.832;13.816;2022-12-07T15:44:47;100654.09;;;3.32;70.57
17764;BME280;22245;52.832;13.816;2022-12-07T15:48:27;100657.66;;;3.31;70.11
17764;BME280;22245;52.832;13.816;2022-12-07T15:51:49;100663.03;;;3.30;70.61
17764;BME280;22245;52.832;13.816;2022-12-07T15:55:11;100666.59;;;3.29;70.45
17764;BME280;22245;52.832;13.816;2022-12-07T15:58:34;100656.88;;;3.29;70.35
17764;BME280;22245;52.832;13.816;2022-12-07T16:01:57;100651.22;;;3.21;71.04
17764;BME280;22245;52.832;13.816;2022-12-07T16:05:19;100657.41;;;3.20;70.91
17764;BME280;22245;52.832;13.816;2022-12-07T16:08:42;100659.47;;;3.15;71.14
17764;BME280;22245;52.832;13.816;2022-12-07T16:12:05;100659.63;;;3.12;70.94
17764;BME280;22245;52.832;13.816;2022-12-07T16:15:28;100659.53;;;3.13;70.91
17764;BME280;22245;52.832;13.816;2022-12-07T16:18:50;100664.63;;;3.16;70.83
17764;BME280;22245;52.832;13.816;2022-12-07T16:22:12;100664.72;;;3.15;71.02
17764;BME280;22245;52.832;13.816;2022-12-07T16:25:34;100657.66;;;3.15;71.07
17764;BME280;22245;52.832;13.816;2022-12-07T16:28:56;100667.34;;;3.15;70.84
17764;BME280;22245;52.832;13.816;2022-12-07T16:32:20;100655.66;;;3.04;71.27
17764;BME280;22245;52.832;13.816;2022-12-07T16:35:42;100662.59;;;3.06;70.78
17764;BME280;22245;52.832;13.816;2022-12-07T16:39:04;100652.16;;;3.04;71.29
17764;BME280;22245;52.832;13.816;2022-12-07T16:42:26;100655.72;;;3.03;71.58
17764;BME280;22245;52.832;13.816;2022-12-07T16:45:52;100668.94;;;3.01;71.68
17764;BME280;22245;52.832;13.816;2022-12-07T16:49:16;100672.69;;;2.97;71.82
17764;BME280;22245;52.832;13.816;2022-12-07T16:52:39;100662.31;;;2.94;71.98
17764;BME280;22245;52.832;13.816;2022-12-07T16:56:00;100662.59;;;2.89;72.43
17764;BME280;22245;52.832;13.816;2022-12-07T16:59:22;100663.69;;;2.85;72.50
17764;BME280;22245;52.832;13.816;2022-12-07T17:02:44;100654.34;;;2.80;73.08
17764;BME280;22245;52.832;13.816;2022-12-07T17:06:13;100672.94;;;2.77;73.39
17764;BME280;22245;52.832;13.816;2022-12-07T17:09:36;100661.81;;;2.71;73.57
17764;BME280;22245;52.832;13.816;2022-12-07T17:12:57;100668.94;;;2.69;74.11
17764;BME280;22245;52.832;13.816;2022-12-07T17:16:19;100669.16;;;2.65;74.47
17764;BME280;22245;52.832;13.816;2022-12-07T17:19:41;100673.66;;;2.63;74.66
17764;BME280;22245;52.832;13.816;2022-12-07T17:23:05;100668.72;;;2.56;74.71
17764;BME280;22245;52.832;13.816;2022-12-07T17:26:27;100677.53;;;2.55;74.62
17764;BME280;22245;52.832;13.816;2022-12-07T17:29:54;100674.22;;;2.52;74.89
17764;BME280;22245;52.832;13.816;2022-12-07T17:33:16;100669.44;;;2.42;74.60
17764;BME280;22245;52.832;13.816;2022-12-07T17:36:38;100673.94;;;2.40;74.60
17764;BME280;22245;52.832;13.816;2022-12-07T17:40:01;100671.47;;;2.37;73.92
17764;BME280;22245;52.832;13.816;2022-12-07T17:43:23;100666.53;;;2.31;74.05
17764;BME280;22245;52.832;13.816;2022-12-07T17:46:47;100663.97;;;2.29;72.93
17764;BME280;22245;52.832;13.816;2022-12-07T17:50:09;100664.06;;;2.28;73.29
17764;BME280;22245;52.832;13.816;2022-12-07T17:53:31;100660.81;;;2.23;73.58
17764;BME280;22245;52.832;13.816;2022-12-07T17:56:53;100661.75;;;2.22;73.67
17764;BME280;22245;52.832;13.816;2022-12-07T18:00:16;100673.28;;;2.19;74.00
17764;BME280;22245;52.832;13.816;2022-12-07T18:03:38;100668.25;;;2.14;74.26